createdAt,value
2023-02-09T00:01:10.634Z,8.73
2023-02-09T00:03:37.234Z,8.75
2023-02-09T00:06:04.518Z,8.52
2023-02-09T00:08:31.432Z,8.32
2023-02-09T00:10:57.954Z,8.35
2023-02-09T00:13:25.334Z,7.60
2023-02-09T00:15:53.063Z,7.90
2023-02-09T00:18:19.958Z,8.10
2023-02-09T00:20:46.566Z,9.07
2023-02-09T00:23:12.948Z,8.25
2023-02-09T00:25:39.724Z,8.60
2023-02-09T00:28:06.470Z,8.32
2023-02-09T00:30:32.787Z,8.18
2023-02-09T00:32:59.112Z,8.82
2023-02-09T00:35:25.751Z,8.45
2023-02-09T00:37:52.136Z,9.18
2023-02-09T00:40:18.517Z,8.13
2023-02-09T00:42:44.829Z,8.32
2023-02-09T00:45:11.412Z,8.18
2023-02-09T00:47:37.698Z,8.52
2023-02-09T00:50:06.652Z,9.20
2023-02-09T00:52:33.320Z,8.88
2023-02-09T00:54:59.613Z,8.50
2023-02-09T00:57:26.057Z,9.30
2023-02-09T00:59:52.356Z,8.63
2023-02-09T01:02:18.632Z,7.90
2023-02-09T01:04:44.917Z,8.05
2023-02-09T01:07:11.278Z,9.05
2023-02-09T01:09:37.578Z,9.80
2023-02-09T01:12:03.836Z,8.27
2023-02-09T01:14:30.082Z,8.57
2023-02-09T01:16:56.329Z,8.25
2023-02-09T01:19:22.628Z,8.25
2023-02-09T01:21:48.948Z,8.73
2023-02-09T01:24:15.612Z,7.78
2023-02-09T01:26:42.242Z,8.73
2023-02-09T01:29:11.716Z,9.40
2023-02-09T01:31:38.048Z,8.77
2023-02-09T01:34:04.456Z,8.45
2023-02-09T01:36:31.666Z,8.70
2023-02-09T01:38:58.794Z,8.88
2023-02-09T01:41:25.176Z,8.77
2023-02-09T01:43:54.619Z,9.32
2023-02-09T01:46:21.479Z,9.45
2023-02-09T01:48:50.420Z,9.05
2023-02-09T01:51:17.368Z,8.70
2023-02-09T01:53:44.442Z,8.68
2023-02-09T01:56:12.692Z,8.80
2023-02-09T01:58:39.312Z,8.63
2023-02-09T02:01:05.644Z,8.82
2023-02-09T02:03:32.364Z,9.32
2023-02-09T02:06:01.649Z,9.02
2023-02-09T02:08:37.021Z,8.73
2023-02-09T02:11:04.444Z,8.27
2023-02-09T02:13:30.768Z,8.55
2023-02-09T02:16:03.157Z,8.73
2023-02-09T02:18:32.275Z,8.73
2023-02-09T02:21:10.718Z,9.25
2023-02-09T02:23:52.456Z,8.23
2023-02-09T02:26:27.656Z,9.02
2023-02-09T02:29:20.141Z,8.60
2023-02-09T02:32:05.256Z,8.13
2023-02-09T02:34:34.547Z,8.25
2023-02-09T02:37:19.531Z,7.95
2023-02-09T02:39:48.555Z,8.40
2023-02-09T02:42:50.206Z,8.68
2023-02-09T02:45:35.460Z,7.70
2023-02-09T02:48:07.694Z,8.95
2023-02-09T02:50:35.732Z,7.78
2023-02-09T02:53:04.281Z,7.82
2023-02-09T02:55:31.995Z,7.53
2023-02-09T02:58:00.294Z,7.82
2023-02-09T03:00:28.306Z,7.88
2023-02-09T03:02:57.488Z,8.15
2023-02-09T03:05:24.751Z,7.68
2023-02-09T03:07:51.211Z,8.20
2023-02-09T03:10:23.621Z,8.13
2023-02-09T03:13:08.422Z,7.97
2023-02-09T03:15:53.292Z,7.55
2023-02-09T03:18:19.569Z,9.35
2023-02-09T03:20:46.062Z,7.68
2023-02-09T03:23:17.600Z,8.00
2023-02-09T03:25:45.350Z,7.55
2023-02-09T03:28:11.668Z,8.68
2023-02-09T03:30:42.450Z,7.93
2023-02-09T03:35:38.724Z,7.50
2023-02-09T03:38:07.097Z,7.57
2023-02-09T03:40:33.852Z,7.15
2023-02-09T03:43:00.122Z,7.82
2023-02-09T03:45:26.358Z,7.85
2023-02-09T03:47:52.773Z,8.35
2023-02-09T03:50:19.147Z,8.05
2023-02-09T03:52:45.420Z,8.35
2023-02-09T03:55:11.663Z,8.10
2023-02-09T03:57:39.057Z,9.00
2023-02-09T04:00:06.444Z,7.85
2023-02-09T04:02:33.062Z,8.27
2023-02-09T04:04:59.403Z,7.82
2023-02-09T04:07:25.797Z,7.65
2023-02-09T04:09:52.024Z,7.85
2023-02-09T04:12:18.323Z,7.13
2023-02-09T04:14:44.632Z,7.75
2023-02-09T04:17:10.878Z,7.65
2023-02-09T04:19:37.170Z,8.02
2023-02-09T04:22:03.471Z,8.40
2023-02-09T04:24:29.785Z,8.98
2023-02-09T04:26:56.090Z,7.53
2023-02-09T04:29:22.411Z,7.60
2023-02-09T04:31:48.749Z,7.18
2023-02-09T04:34:15.213Z,7.60
2023-02-09T04:36:41.464Z,7.53
2023-02-09T04:39:07.764Z,6.95
2023-02-09T04:41:34.083Z,7.60
2023-02-09T04:44:00.376Z,7.70
2023-02-09T04:46:26.685Z,7.55
2023-02-09T04:48:53.042Z,6.53
2023-02-09T04:51:19.287Z,7.32
2023-02-09T04:53:45.541Z,7.70
2023-02-09T04:56:15.037Z,7.38
2023-02-09T04:59:00.093Z,7.63
2023-02-09T05:01:26.433Z,7.30
2023-02-09T05:03:52.839Z,7.57
2023-02-09T05:06:19.424Z,7.50
2023-02-09T05:08:45.737Z,6.80
2023-02-09T05:11:12.402Z,6.72
2023-02-09T05:13:39.021Z,7.88
2023-02-09T05:16:06.564Z,7.13
2023-02-09T05:18:32.864Z,7.75
2023-02-09T05:20:59.154Z,6.95
2023-02-09T05:23:25.400Z,7.03
2023-02-09T05:25:51.709Z,7.18
2023-02-09T05:28:18.037Z,7.93
2023-02-09T05:30:44.899Z,8.15
2023-02-09T05:33:11.479Z,7.30
2023-02-09T05:35:37.787Z,7.45
2023-02-09T05:38:04.113Z,7.53
2023-02-09T05:40:30.450Z,7.53
2023-02-09T05:42:57.400Z,7.90
2023-02-09T05:45:23.636Z,7.80
2023-02-09T05:47:49.910Z,7.20
2023-02-09T05:50:16.716Z,8.18
2023-02-09T05:52:42.993Z,7.47
2023-02-09T05:55:09.249Z,7.72
2023-02-09T05:57:35.543Z,7.88
2023-02-09T06:00:02.185Z,7.25
2023-02-09T06:02:28.450Z,7.70
2023-02-09T06:04:54.747Z,7.75
2023-02-09T06:07:21.091Z,7.55
2023-02-09T06:09:47.481Z,8.43
2023-02-09T06:12:13.781Z,8.10
2023-02-09T06:14:40.099Z,8.52
2023-02-09T06:17:06.399Z,7.35
2023-02-09T06:19:32.653Z,8.02
2023-02-09T06:21:59.296Z,7.75
2023-02-09T06:24:25.585Z,8.05
2023-02-09T06:26:51.845Z,6.95
2023-02-09T06:29:18.188Z,7.32
2023-02-09T06:31:44.762Z,7.82
2023-02-09T06:34:11.115Z,7.80
2023-02-09T06:36:37.493Z,8.50
2023-02-09T06:39:06.592Z,6.88
2023-02-09T06:41:32.887Z,7.88
2023-02-09T06:43:59.138Z,8.10
2023-02-09T06:46:25.413Z,7.75
2023-02-09T06:48:51.692Z,7.53
2023-02-09T06:51:18.175Z,7.80
2023-02-09T06:53:44.690Z,7.97
2023-02-09T06:56:11.604Z,7.32
2023-02-09T06:58:38.320Z,7.90
2023-02-09T07:01:09.128Z,7.82
2023-02-09T07:03:35.900Z,7.95
2023-02-09T07:06:03.000Z,7.72
2023-02-09T07:08:29.281Z,7.57
2023-02-09T07:10:55.532Z,7.47
2023-02-09T07:13:21.834Z,8.05
2023-02-09T07:15:54.780Z,7.75
2023-02-09T07:18:21.090Z,7.28
2023-02-09T07:20:53.409Z,8.55
2023-02-09T07:23:19.646Z,7.90
2023-02-09T07:25:45.868Z,7.97
2023-02-09T07:28:12.212Z,8.88
2023-02-09T07:30:41.010Z,8.55
2023-02-09T07:33:07.728Z,8.30
2023-02-09T07:35:34.109Z,8.60
2023-02-09T07:38:00.365Z,8.70
2023-02-09T07:40:26.759Z,8.07
2023-02-09T07:42:53.080Z,8.38
2023-02-09T07:45:19.367Z,8.05
2023-02-09T07:47:45.676Z,8.80
2023-02-09T07:50:11.998Z,8.55
2023-02-09T07:52:38.290Z,8.90
2023-02-09T07:55:04.960Z,8.63
2023-02-09T07:57:32.885Z,8.85
2023-02-09T07:59:59.170Z,9.98
2023-02-09T08:02:27.772Z,9.38
2023-02-09T08:04:55.835Z,9.00
2023-02-09T08:07:22.202Z,8.88
2023-02-09T08:09:48.491Z,8.43
2023-02-09T08:12:14.936Z,9.07
2023-02-09T08:14:43.506Z,7.78
2023-02-09T08:17:20.704Z,8.88
2023-02-09T08:19:52.716Z,8.50
2023-02-09T08:22:19.129Z,9.68
2023-02-09T08:24:45.537Z,9.10
2023-02-09T08:27:11.912Z,8.23
2023-02-09T08:29:38.237Z,7.97
2023-02-09T08:32:04.687Z,8.65
2023-02-09T08:34:31.018Z,8.65
2023-02-09T08:36:57.265Z,8.55
2023-02-09T08:39:23.509Z,8.95
2023-02-09T08:41:49.820Z,8.25
2023-02-09T08:44:16.108Z,8.52
2023-02-09T08:46:42.446Z,8.38
2023-02-09T08:49:08.841Z,8.73
2023-02-09T08:51:35.082Z,9.00
2023-02-09T08:54:01.539Z,8.80
2023-02-09T08:56:27.788Z,9.00
2023-02-09T08:58:54.154Z,8.95
2023-02-09T09:01:20.504Z,8.70
2023-02-09T09:03:46.866Z,9.30
2023-02-09T09:06:13.563Z,8.80
2023-02-09T09:08:40.074Z,9.55
2023-02-09T09:11:07.172Z,9.70
2023-02-09T09:13:33.507Z,8.65
2023-02-09T09:15:59.823Z,8.48
2023-02-09T09:18:26.439Z,9.00
2023-02-09T09:20:52.780Z,8.90
2023-02-09T09:23:19.083Z,9.27
2023-02-09T09:25:45.674Z,8.95
2023-02-09T09:28:13.356Z,9.23
2023-02-09T09:30:39.632Z,8.55
2023-02-09T09:33:05.933Z,9.25
2023-02-09T09:35:32.276Z,9.23
2023-02-09T09:37:58.630Z,8.98
2023-02-09T09:40:26.832Z,9.88
2023-02-09T09:42:55.065Z,9.90
2023-02-09T09:45:23.681Z,10.32
2023-02-09T09:47:50.141Z,9.80
2023-02-09T09:50:26.453Z,10.00
2023-02-09T09:52:58.261Z,9.65
2023-02-09T09:55:27.048Z,8.55
2023-02-09T09:57:54.513Z,9.50
2023-02-09T10:00:22.758Z,9.10
2023-02-09T10:02:49.082Z,10.02
2023-02-09T10:05:15.340Z,9.77
2023-02-09T10:07:43.541Z,9.23
2023-02-09T10:10:18.406Z,8.98
2023-02-09T10:12:48.407Z,8.85
2023-02-09T10:15:23.712Z,10.23
2023-02-09T10:17:49.949Z,9.18
2023-02-09T10:20:17.079Z,9.68
2023-02-09T10:22:44.592Z,9.93
2023-02-09T10:25:29.455Z,9.45
2023-02-09T10:27:55.709Z,9.75
2023-02-09T10:30:26.994Z,10.38
2023-02-09T10:32:53.471Z,9.90
2023-02-09T10:35:24.767Z,9.95
2023-02-09T10:37:57.717Z,9.57
2023-02-09T10:40:28.302Z,10.50
2023-02-09T10:42:55.887Z,10.10
2023-02-09T10:45:26.746Z,9.75
2023-02-09T10:47:56.886Z,9.82
2023-02-09T10:50:23.168Z,10.48
2023-02-09T10:52:55.226Z,10.65
2023-02-09T10:55:24.360Z,10.13
2023-02-09T10:57:50.706Z,10.63
2023-02-09T11:00:16.989Z,10.40
2023-02-09T11:02:50.095Z,10.98
2023-02-09T11:05:22.616Z,9.80
2023-02-09T11:07:51.411Z,9.88
2023-02-09T11:10:19.133Z,10.20
2023-02-09T11:12:45.437Z,11.13
2023-02-09T11:15:15.267Z,10.65
2023-02-09T11:17:45.109Z,10.57
2023-02-09T11:20:17.312Z,10.77
2023-02-09T11:23:01.806Z,10.75
2023-02-09T11:25:31.400Z,10.90
2023-02-09T11:28:09.699Z,11.13
2023-02-09T11:30:47.559Z,10.90
2023-02-09T11:33:22.849Z,10.82
2023-02-09T11:35:54.852Z,10.40
2023-02-09T11:38:25.886Z,11.52
2023-02-09T11:40:53.706Z,11.32
2023-02-09T11:43:25.205Z,11.43
2023-02-09T11:45:52.331Z,11.07
2023-02-09T11:48:22.157Z,11.65
2023-02-09T11:50:51.208Z,11.03
2023-02-09T11:53:23.427Z,11.18
2023-02-09T11:55:53.688Z,11.07
2023-02-09T11:58:19.928Z,11.77
2023-02-09T12:00:59.697Z,11.65
2023-02-09T12:03:30.457Z,12.27
2023-02-09T12:05:57.239Z,13.05
2023-02-09T12:08:42.049Z,12.75
2023-02-09T12:11:11.268Z,13.10
2023-02-09T12:13:56.015Z,13.73
2023-02-09T12:16:24.312Z,13.00
2023-02-09T12:18:53.386Z,12.05
2023-02-09T12:21:27.573Z,12.45
2023-02-09T12:23:53.816Z,12.52
2023-02-09T12:26:39.228Z,12.68
2023-02-09T12:29:24.624Z,12.35
2023-02-09T12:32:03.096Z,12.27
2023-02-09T12:34:51.145Z,13.05
2023-02-09T12:37:27.323Z,12.50
2023-02-09T12:40:02.682Z,12.90
2023-02-09T12:42:37.754Z,13.18
2023-02-09T12:45:24.016Z,12.38
2023-02-09T12:48:01.087Z,12.98
2023-02-09T12:50:31.801Z,13.40
2023-02-09T12:53:16.516Z,12.85
2023-02-09T12:55:56.765Z,13.63
2023-02-09T12:58:36.513Z,12.82
2023-02-09T13:01:03.006Z,13.13
2023-02-09T13:03:29.859Z,13.43
2023-02-09T13:05:57.966Z,12.90
2023-02-09T13:08:28.294Z,13.68
2023-02-09T13:11:01.336Z,14.23
2023-02-09T13:13:33.650Z,13.25
2023-02-09T13:16:11.117Z,13.55
2023-02-09T13:18:52.659Z,14.05
2023-02-09T13:21:26.847Z,14.45
2023-02-09T13:24:00.706Z,14.20
2023-02-09T13:26:28.102Z,14.40
2023-02-09T13:29:20.499Z,15.15
2023-02-09T13:31:58.061Z,13.85
2023-02-09T13:34:39.469Z,14.07
2023-02-09T13:37:05.680Z,15.43
2023-02-09T13:39:35.076Z,14.95
2023-02-09T13:42:01.388Z,14.65
2023-02-09T13:44:29.055Z,15.50
2023-02-09T13:46:59.393Z,16.02
2023-02-09T13:49:26.985Z,15.93
2023-02-09T13:52:11.908Z,16.25
2023-02-09T13:54:38.652Z,15.55
2023-02-09T13:57:08.951Z,15.23
2023-02-09T13:59:35.520Z,14.95
2023-02-09T14:02:01.837Z,15.73
2023-02-09T14:04:30.001Z,15.85
2023-02-09T14:07:08.130Z,16.73
2023-02-09T14:09:40.256Z,16.02
2023-02-09T14:12:12.996Z,17.48
2023-02-09T14:14:59.249Z,16.40
2023-02-09T14:17:34.741Z,16.75
2023-02-09T14:20:01.393Z,15.65
2023-02-09T14:22:32.689Z,16.70
2023-02-09T14:24:59.380Z,17.02
2023-02-09T14:27:29.493Z,17.52
2023-02-09T14:29:56.036Z,17.02
2023-02-09T14:32:32.971Z,18.10
2023-02-09T14:35:08.545Z,17.60
2023-02-09T14:37:36.635Z,17.52
2023-02-09T14:40:06.090Z,17.95
2023-02-09T14:42:33.461Z,16.90
2023-02-09T14:45:23.065Z,18.05
2023-02-09T14:47:49.329Z,18.08
2023-02-09T14:50:17.028Z,17.13
2023-02-09T14:52:46.717Z,19.33
2023-02-09T14:55:21.066Z,17.70
2023-02-09T14:57:47.376Z,18.33
2023-02-09T15:00:15.424Z,18.77
2023-02-09T15:02:41.781Z,18.15
2023-02-09T15:05:08.296Z,18.23
2023-02-09T15:07:35.786Z,18.42
2023-02-09T15:10:02.937Z,18.58
2023-02-09T15:12:29.539Z,18.67
2023-02-09T15:14:59.232Z,19.15
2023-02-09T15:17:29.325Z,18.70
2023-02-09T15:19:56.367Z,18.35
2023-02-09T15:22:22.956Z,19.55
2023-02-09T15:24:50.273Z,18.42
2023-02-09T15:27:19.806Z,18.98
2023-02-09T15:29:46.066Z,19.48
2023-02-09T15:32:16.146Z,19.20
2023-02-09T15:34:42.594Z,20.00
2023-02-09T15:37:31.645Z,18.58
2023-02-09T15:40:01.515Z,20.10
2023-02-09T15:42:46.610Z,19.60
2023-02-09T15:45:35.627Z,20.17
2023-02-09T15:48:02.246Z,20.83
2023-02-09T15:50:29.095Z,19.52
2023-02-09T15:52:57.620Z,20.02
2023-02-09T15:55:25.029Z,19.90
2023-02-09T15:57:52.728Z,19.90
2023-02-09T16:00:20.179Z,20.67
2023-02-09T16:02:48.874Z,19.45
2023-02-09T16:05:15.329Z,20.75
2023-02-09T16:07:41.639Z,21.55
2023-02-09T16:10:17.932Z,21.20
2023-02-09T16:12:44.242Z,21.08
2023-02-09T16:15:15.061Z,21.67
2023-02-09T16:17:41.401Z,21.00
2023-02-09T16:20:07.836Z,20.52
2023-02-09T16:22:34.097Z,20.80
2023-02-09T16:25:00.400Z,22.80
2023-02-09T16:27:28.113Z,20.55
2023-02-09T16:29:54.921Z,21.25
2023-02-09T16:32:22.822Z,21.17
2023-02-09T16:34:49.585Z,22.38
2023-02-09T16:37:22.041Z,22.45
2023-02-09T16:39:48.301Z,22.48
2023-02-09T16:42:15.702Z,22.58
2023-02-09T16:44:42.458Z,21.17
2023-02-09T16:47:16.038Z,23.67
2023-02-09T16:49:49.597Z,22.45
2023-02-09T16:52:18.330Z,23.08
2023-02-09T16:54:46.620Z,23.60
2023-02-09T16:57:14.705Z,23.80
2023-02-09T16:59:41.029Z,23.88
2023-02-09T17:02:25.634Z,23.30
2023-02-09T17:04:52.003Z,25.52
2023-02-09T17:07:18.277Z,25.02
2023-02-09T17:09:44.656Z,25.30
2023-02-09T17:12:12.056Z,26.05
2023-02-09T17:14:38.353Z,26.98
2023-02-09T17:17:04.639Z,23.77
2023-02-09T17:19:42.160Z,22.92
2023-02-09T17:22:14.061Z,24.98
2023-02-09T17:24:40.317Z,25.88
2023-02-09T17:27:06.696Z,25.08
2023-02-09T17:29:33.794Z,24.08
2023-02-09T17:32:01.530Z,44.08
2023-02-09T17:34:28.384Z,26.63
2023-02-09T17:36:55.602Z,24.15
2023-02-09T17:39:21.885Z,26.05
2023-02-09T17:41:49.831Z,24.60
2023-02-09T17:44:34.848Z,24.02
2023-02-09T17:47:04.078Z,25.73
2023-02-09T17:49:30.418Z,24.52
2023-02-09T17:51:56.709Z,24.98
2023-02-09T17:54:23.026Z,25.15
2023-02-09T17:56:49.383Z,25.30
2023-02-09T17:59:19.507Z,23.83
2023-02-09T18:01:49.412Z,24.83
2023-02-09T18:04:17.273Z,25.90
2023-02-09T18:06:43.534Z,25.45
2023-02-09T18:09:12.372Z,25.45
2023-02-09T18:11:41.439Z,26.67
2023-02-09T18:14:08.898Z,25.33
2023-02-09T18:16:36.468Z,26.23
2023-02-09T18:19:02.915Z,25.45
2023-02-09T18:21:29.213Z,25.27
2023-02-09T18:23:55.461Z,27.15
2023-02-09T18:26:21.697Z,25.17
2023-02-09T18:28:48.001Z,26.98
2023-02-09T18:31:15.304Z,27.90
2023-02-09T18:33:41.779Z,26.70
2023-02-09T18:36:08.476Z,27.38
2023-02-09T18:38:34.991Z,28.13
2023-02-09T18:41:01.426Z,27.65
2023-02-09T18:43:27.845Z,25.10
2023-02-09T18:45:54.110Z,26.83
2023-02-09T18:48:20.467Z,25.95
2023-02-09T18:50:46.770Z,30.15
2023-02-09T18:53:14.446Z,25.98
2023-02-09T18:55:40.984Z,27.58
2023-02-09T18:58:09.388Z,26.13
2023-02-09T19:00:35.766Z,28.23
2023-02-09T19:03:02.173Z,27.75
2023-02-09T19:05:29.963Z,28.38
2023-02-09T19:07:56.379Z,31.45
2023-02-09T19:10:23.141Z,30.38
2023-02-09T19:12:49.660Z,30.30
2023-02-09T19:15:17.522Z,29.90
2023-02-09T19:17:44.279Z,29.85
2023-02-09T19:20:16.347Z,32.38
2023-02-09T19:22:42.708Z,28.77
2023-02-09T19:25:09.073Z,29.63
2023-02-09T19:27:35.358Z,29.35
2023-02-09T19:30:01.600Z,29.10
2023-02-09T19:32:28.147Z,30.45
2023-02-09T19:34:54.482Z,30.77
2023-02-09T19:37:21.779Z,32.17
2023-02-09T19:40:03.816Z,31.88
2023-02-09T19:42:30.617Z,36.78
2023-02-09T19:44:56.984Z,37.78
2023-02-09T19:47:25.948Z,39.28
2023-02-09T19:49:52.970Z,36.38
2023-02-09T19:52:19.211Z,31.67
2023-02-09T19:54:45.452Z,32.45
2023-02-09T19:57:11.734Z,31.10
2023-02-09T19:59:38.408Z,29.60
2023-02-09T20:02:05.200Z,31.13
2023-02-09T20:04:32.874Z,31.40
2023-02-09T20:06:59.248Z,32.80
2023-02-09T20:09:25.624Z,31.20
2023-02-09T20:11:51.869Z,31.50
2023-02-09T20:14:18.209Z,30.75
2023-02-09T20:16:44.509Z,32.75
2023-02-09T20:19:10.868Z,31.15
2023-02-09T20:21:37.205Z,30.33
2023-02-09T20:24:09.365Z,33.30
2023-02-09T20:26:35.684Z,35.65
2023-02-09T20:29:02.763Z,32.75
2023-02-09T20:31:32.651Z,32.25
2023-02-09T20:33:59.057Z,31.27
2023-02-09T20:36:25.782Z,29.92
2023-02-09T20:38:52.332Z,30.48
2023-02-09T20:41:18.619Z,33.53
2023-02-09T20:44:03.929Z,33.42
2023-02-09T20:47:00.508Z,33.60
2023-02-09T20:49:29.833Z,35.40
2023-02-09T20:51:56.160Z,31.60
2023-02-09T20:54:22.536Z,33.45
2023-02-09T20:56:48.832Z,32.70
2023-02-09T20:59:15.719Z,31.17
2023-02-09T21:01:42.285Z,34.20
2023-02-09T21:04:09.022Z,33.40
2023-02-09T21:06:37.052Z,36.08
2023-02-09T21:09:06.840Z,36.55
2023-02-09T21:11:33.196Z,32.00
2023-02-09T21:14:01.265Z,30.58
2023-02-09T21:16:28.324Z,31.02
2023-02-09T21:18:54.644Z,30.50
2023-02-09T21:21:22.199Z,30.67
2023-02-09T21:23:48.882Z,28.30
2023-02-09T21:26:22.525Z,28.95
2023-02-09T21:28:49.146Z,31.85
2023-02-09T21:31:20.915Z,28.13
2023-02-09T21:33:47.617Z,29.98
2023-02-09T21:36:13.929Z,31.98
2023-02-09T21:38:41.557Z,30.45
2023-02-09T21:41:32.112Z,34.50
2023-02-09T21:43:58.817Z,31.17
2023-02-09T21:46:25.240Z,36.42
2023-02-09T21:48:51.808Z,59.05
2023-02-09T21:51:18.369Z,57.95
2023-02-09T21:53:44.894Z,52.45
2023-02-09T21:56:11.184Z,47.30
2023-02-09T21:58:37.479Z,48.40
2023-02-09T22:01:03.766Z,39.28
2023-02-09T22:03:30.081Z,38.67
2023-02-09T22:05:56.836Z,33.53
2023-02-09T22:08:23.262Z,32.28
2023-02-09T22:10:51.312Z,30.67
2023-02-09T22:13:17.862Z,30.52
2023-02-09T22:15:44.443Z,29.90
2023-02-09T22:18:10.848Z,29.38
2023-02-09T22:20:40.732Z,28.23
2023-02-09T22:23:07.006Z,28.33
2023-02-09T22:25:33.836Z,28.33
2023-02-09T22:28:00.173Z,27.75
2023-02-09T22:30:26.569Z,27.65
2023-02-09T22:32:52.946Z,28.92
2023-02-09T22:35:19.286Z,28.20
2023-02-09T22:37:45.645Z,28.98
2023-02-09T22:40:11.930Z,26.90
2023-02-09T22:42:38.169Z,27.60
2023-02-09T22:45:05.246Z,25.95
2023-02-09T22:47:32.189Z,26.42
2023-02-09T22:49:58.552Z,24.75
2023-02-09T22:52:24.953Z,24.80
2023-02-09T22:54:51.534Z,26.27
2023-02-09T22:57:17.885Z,25.95
2023-02-09T22:59:44.192Z,30.02
2023-02-09T23:02:12.445Z,27.02
2023-02-09T23:04:38.922Z,25.67
2023-02-09T23:07:05.246Z,27.27
2023-02-09T23:09:31.500Z,28.42
2023-02-09T23:11:57.785Z,25.98
2023-02-09T23:14:24.093Z,26.55
2023-02-09T23:16:50.394Z,26.17
2023-02-09T23:19:18.004Z,22.23
2023-02-09T23:21:45.813Z,22.00
2023-02-09T23:24:12.674Z,22.42
2023-02-09T23:26:39.001Z,21.17
2023-02-09T23:29:06.908Z,22.83
2023-02-09T23:31:33.486Z,22.85
2023-02-09T23:33:59.992Z,19.95
2023-02-09T23:36:27.979Z,22.08
2023-02-09T23:38:55.739Z,20.23
2023-02-09T23:41:22.478Z,20.80
2023-02-09T23:43:48.991Z,19.88
2023-02-09T23:46:16.623Z,20.27
2023-02-09T23:48:44.489Z,19.02
2023-02-09T23:51:18.346Z,20.05
2023-02-09T23:53:45.375Z,18.67
2023-02-09T23:56:15.614Z,20.15
2023-02-09T23:58:43.106Z,19.90
